Decoded Metar for KBKE (BAKER in OR, USA) (IATA:BKE) | Meteo·Mobile Aviation Weather
aviador You're here:

KBKE Decoded Metar

BAKER in OR, USA
Report Time2018-11-19 02:53:00
UTC Time2018-11-19 03:48:25
Flight Rules vfr VFR
WindCalm
Visibility9999 m
Phenomena:N/A
Clouds:N/A
Expected CloudBase > 1,200 ft AGL from Temp-Dew spread
CeilingNone
Temp-3°C (ISA -11)
Dew Point-6°C (80% RH)
AAT-5.7°C
QNH1024 hPa
Density Alt1,670 ft
Elevation3,360 ft
Report Wrong Elevation
Raw Report
KBKE 190253Z AUTO 00000KT 10SM CLR M03/M06 A3025 RMK AO2 SLP289
T10281061 53005 TSNO=

Extra information for KBKE:More info

Metar Taf Metar & Taf Last 4 Metars F.Rules Stats Wind Profile Meteogram Temp Stats Airport Information Weather charts Add Link Nearby VenuesMetar ALERT Operation Metar Decoded Social comments

AIRNAV info for KBKE